Time;durP1;ratioP1;P1;durP2;ratioP2;P2;SDS_P1;SDS_P2;PMS_P1;PMS_P2;Temp;Humidity;BMP_temperature;BMP_pressure;BME280_temperature;BME280_humidity;BME280_pressure;Samples;Min_cycle;Max_cycle;Signal;HPM_P1;HPM_P2
2023/12/03 00:01:59;;;;;;;18.42;5.03;;;;;;;16.04;38.04;93978.09;5005745;28;20187;-73
2023/12/03 00:04:24;;;;;;;13.50;2.95;;;;;;;15.93;38.21;93958.34;5004841;28;20223;-75
2023/12/03 00:06:50;;;;;;;17.10;2.90;;;;;;;16.02;38.38;93972.97;5008518;28;20585;-74
2023/12/03 00:09:16;;;;;;;17.63;3.25;;;;;;;15.88;38.73;93971.41;4999245;28;20233;-78
2023/12/03 00:11:41;;;;;;;14.07;2.75;;;;;;;15.78;38.80;93979.81;5002633;28;20229;-79
2023/12/03 00:14:07;;;;;;;18.42;3.67;;;;;;;15.91;39.16;93981.59;5003511;28;20182;-77
2023/12/03 00:16:32;;;;;;;12.35;3.53;;;;;;;15.99;39.03;93996.47;5004975;28;20225;-78
2023/12/03 00:18:58;;;;;;;14.32;2.95;;;;;;;16.08;38.76;93979.28;4998800;28;20599;-75
2023/12/03 00:21:23;;;;;;;11.85;2.92;;;;;;;15.93;39.06;93994.63;5001206;28;20225;-73
2023/12/03 00:23:49;;;;;;;14.32;3.20;;;;;;;15.89;39.38;93991.59;5000045;28;20222;-74
2023/12/03 00:26:14;;;;;;;15.85;2.83;;;;;;;15.84;39.53;93988.75;4997181;28;20480;-74
2023/12/03 00:28:40;;;;;;;16.30;3.15;;;;;;;15.92;39.32;93977.91;4999509;28;20276;-78
2023/12/03 00:31:05;;;;;;;12.73;2.63;;;;;;;15.94;39.16;93975.88;5002536;28;20249;-78
2023/12/03 00:33:31;;;;;;;10.25;2.67;;;;;;;15.93;39.38;93984.03;4998725;28;20277;-74
2023/12/03 00:35:59;;;;;;;15.02;3.67;;;;;;;15.98;39.32;93986.88;5001687;28;20227;-78
2023/12/03 00:38:25;;;;;;;13.25;2.92;;;;;;;15.95;39.36;93985.44;5002778;28;20233;-75
2023/12/03 00:40:50;;;;;;;14.65;3.42;;;;;;;15.98;39.34;93981.56;5003760;28;20179;-73
2023/12/03 00:43:15;;;;;;;9.80;3.05;;;;;;;15.94;39.22;93991.78;5003648;28;20234;-76
2023/12/03 00:45:41;;;;;;;9.25;2.40;;;;;;;15.79;39.54;93986.72;5002802;28;20250;-76
2023/12/03 00:48:06;;;;;;;10.93;2.50;;;;;;;15.83;39.67;94006.50;4998209;28;20310;-76
2023/12/03 00:50:32;;;;;;;11.75;2.60;;;;;;;15.97;39.05;94001.97;4998619;28;20248;-75
2023/12/03 00:52:58;;;;;;;11.63;2.92;;;;;;;15.88;39.79;94009.34;5006812;28;20180;-79
2023/12/03 00:55:23;;;;;;;14.13;3.55;;;;;;;15.88;39.62;94006.69;5008765;28;20223;-74
2023/12/03 00:57:49;;;;;;;12.57;3.17;;;;;;;16.00;39.66;93998.88;5002300;28;20299;-73
2023/12/03 01:00:15;;;;;;;14.20;3.30;;;;;;;15.98;39.59;94008.06;5002042;28;20241;-77
2023/12/03 01:02:40;;;;;;;15.40;2.80;;;;;;;16.02;39.50;94004.00;5000868;28;20234;-73
2023/12/03 01:05:06;;;;;;;17.25;3.17;;;;;;;16.15;39.31;94000.47;4994731;28;20178;-76
2023/12/03 01:07:32;;;;;;;11.82;2.88;;;;;;;15.98;39.60;94014.19;5001243;28;20241;-76
2023/12/03 01:09:57;;;;;;;19.95;3.13;;;;;;;15.95;39.58;94016.44;4996815;28;20222;-76
2023/12/03 01:12:25;;;;;;;18.25;3.17;;;;;;;15.94;39.61;94009.53;5002571;28;20226;-75
2023/12/03 01:14:51;;;;;;;14.43;3.10;;;;;;;16.03;40.00;94017.03;4998749;28;20218;-74
2023/12/03 01:17:16;;;;;;;14.20;3.63;;;;;;;16.04;39.54;94013.38;5000025;28;20194;-79
2023/12/03 01:19:41;;;;;;;12.48;3.40;;;;;;;15.99;39.59;94026.44;4998950;28;20313;-79
2023/12/03 01:22:07;;;;;;;18.02;2.95;;;;;;;15.91;39.99;94016.06;5004797;28;20222;-79
2023/12/03 01:24:33;;;;;;;9.05;2.63;;;;;;;15.88;40.13;94027.91;4999358;28;20238;-75
2023/12/03 01:26:58;;;;;;;12.43;3.55;;;;;;;15.88;40.06;94029.75;5003132;28;20225;-76
2023/12/03 01:29:23;;;;;;;14.45;2.97;;;;;;;15.96;40.03;94026.84;4999478;28;20193;-74
2023/12/03 01:31:49;;;;;;;19.33;4.07;;;;;;;15.86;40.10;94027.28;4999967;28;20183;-75
2023/12/03 01:34:14;;;;;;;13.07;2.72;;;;;;;15.95;40.19;94030.50;5003365;28;20235;-79
2023/12/03 01:36:40;;;;;;;11.80;2.50;;;;;;;16.05;39.94;94027.44;5006960;28;20226;-80
2023/12/03 01:39:05;;;;;;;11.88;3.38;;;;;;;16.02;39.72;94020.72;5006094;28;20246;-79
2023/12/03 01:41:31;;;;;;;10.65;3.08;;;;;;;15.97;39.92;94017.06;5009930;28;20190;-78
2023/12/03 01:43:56;;;;;;;13.38;2.90;;;;;;;16.09;39.73;94028.63;5002467;28;20190;-79
2023/12/03 01:46:23;;;;;;;14.77;2.70;;;;;;;16.03;40.09;94022.31;5004398;28;20235;-79
2023/12/03 01:48:50;;;;;;;11.15;2.83;;;;;;;16.05;39.81;94014.19;4992944;28;20289;-79
2023/12/03 01:51:16;;;;;;;14.40;3.03;;;;;;;16.04;40.14;94015.22;5006104;28;20218;-79
2023/12/03 01:53:43;;;;;;;15.30;3.15;;;;;;;16.09;39.90;94005.59;5003565;28;20222;-79
2023/12/03 01:56:09;;;;;;;16.85;3.55;;;;;;;16.03;40.08;94017.03;5005181;28;20425;-79
2023/12/03 01:58:35;;;;;;;14.80;3.30;;;;;;;16.01;40.02;94010.31;5004101;28;20227;-79
2023/12/03 02:01:01;;;;;;;11.65;3.60;;;;;;;16.12;39.78;94019.44;5007418;28;20222;-79
2023/12/03 02:03:28;;;;;;;11.90;3.30;;;;;;;15.96;40.21;94023.38;5008049;28;20651;-79
2023/12/03 02:06:14;;;;;;;10.05;3.10;;;;;;;16.03;40.19;94021.53;5008180;28;20233;-78
2023/12/03 02:08:40;;;;;;;9.30;2.65;;;;;;;16.09;40.25;94024.16;5002568;28;20294;-79
2023/12/03 02:11:06;;;;;;;8.57;2.42;;;;;;;16.06;40.25;94023.75;4999806;28;20271;-79
2023/12/03 02:13:33;;;;;;;14.43;3.13;;;;;;;16.04;40.33;94016.03;5000215;28;20225;-79
2023/12/03 02:15:58;;;;;;;13.25;3.28;;;;;;;15.93;40.42;94015.84;5006850;28;20278;-79
2023/12/03 02:18:27;;;;;;;15.32;3.17;;;;;;;16.08;40.21;94009.25;5007711;28;20310;-79
2023/12/03 02:20:55;;;;;;;11.52;2.67;;;;;;;16.01;40.27;94018.25;5004801;28;20219;-79
2023/12/03 02:23:20;;;;;;;12.55;3.35;;;;;;;16.01;40.35;94012.94;5007451;28;20193;-79
2023/12/03 02:25:47;;;;;;;11.48;3.10;;;;;;;16.03;40.07;94005.59;5006206;28;20322;-79
2023/12/03 02:28:13;;;;;;;11.57;3.05;;;;;;;16.10;39.92;94011.72;5004137;28;20216;-79
2023/12/03 02:30:40;;;;;;;14.32;3.35;;;;;;;16.04;40.32;94013.38;5005744;28;20231;-79
2023/12/03 02:33:05;;;;;;;14.98;3.42;;;;;;;16.00;40.35;94008.69;5008411;28;20220;-79
2023/12/03 02:35:31;;;;;;;15.45;3.22;;;;;;;16.00;40.21;94012.16;5004410;28;20191;-79
2023/12/03 02:37:56;;;;;;;12.65;2.92;;;;;;;15.97;40.27;94017.06;4989965;28;20223;-79
2023/12/03 02:40:21;;;;;;;11.40;2.67;;;;;;;16.06;40.29;94018.44;5007591;28;20713;-79
2023/12/03 02:42:47;;;;;;;12.13;3.10;;;;;;;16.02;40.38;94007.44;5001543;28;20230;-79
2023/12/03 02:45:12;;;;;;;17.02;3.35;;;;;;;15.99;40.37;94022.97;4998197;28;20245;-79
2023/12/03 02:47:38;;;;;;;11.73;3.10;;;;;;;16.03;40.32;94010.91;4999874;28;20183;-79
2023/12/03 02:50:04;;;;;;;11.20;3.00;;;;;;;16.10;40.30;94022.31;5001047;28;20183;-79
2023/12/03 02:52:29;;;;;;;9.90;2.70;;;;;;;16.11;40.12;94029.25;5007657;28;20234;-78
2023/12/03 02:54:55;;;;;;;16.52;2.92;;;;;;;16.03;40.41;94042.72;5001789;28;20215;-79
2023/12/03 02:57:20;;;;;;;12.73;3.50;;;;;;;16.01;40.81;94036.81;5009572;28;20697;-79
2023/12/03 02:59:46;;;;;;;15.88;3.33;;;;;;;15.97;40.65;94043.56;4998085;28;20299;-79
2023/12/03 03:02:11;;;;;;;12.23;3.20;;;;;;;15.97;40.87;94055.00;5001630;28;20187;-79
2023/12/03 03:04:37;;;;;;;12.25;2.70;;;;;;;15.86;40.98;94047.69;4999256;28;20227;-79
2023/12/03 03:07:02;;;;;;;17.55;3.42;;;;;;;15.93;41.10;94053.78;5005978;28;20231;-79
2023/12/03 03:09:27;;;;;;;14.15;3.80;;;;;;;15.91;40.84;94044.41;5004830;28;20233;-79
2023/12/03 03:11:54;;;;;;;15.35;3.75;;;;;;;15.98;41.04;94050.50;5000637;28;20298;-79
2023/12/03 03:14:20;;;;;;;16.70;3.45;;;;;;;15.97;41.18;94054.19;5008270;28;20191;-79
2023/12/03 03:16:46;;;;;;;11.38;3.70;;;;;;;15.97;41.35;94065.59;4998189;28;20280;-79
2023/12/03 03:19:11;;;;;;;11.68;3.03;;;;;;;15.87;41.41;94059.91;5009057;28;20227;-79
2023/12/03 03:21:40;;;;;;;12.90;2.58;;;;;;;16.01;41.42;94061.53;5002433;28;20230;-79
2023/12/03 03:24:06;;;;;;;14.88;3.38;;;;;;;16.00;41.06;94067.81;4994837;28;20218;-79
2023/12/03 03:26:31;;;;;;;12.63;3.22;;;;;;;15.97;41.35;94064.78;5004410;28;20344;-78
2023/12/03 03:28:57;;;;;;;13.30;3.35;;;;;;;15.96;41.37;94063.13;5002541;28;20637;-79
2023/12/03 03:31:22;;;;;;;14.02;2.80;;;;;;;15.88;41.52;94067.66;5007523;28;20229;-79
2023/12/03 03:33:49;;;;;;;16.15;3.58;;;;;;;16.02;41.69;94073.75;5000855;28;20226;-79
2023/12/03 03:36:15;;;;;;;12.23;3.38;;;;;;;15.83;41.83;94077.25;5009831;28;20226;-80
2023/12/03 03:38:43;;;;;;;11.38;3.25;;;;;;;15.87;42.10;94089.06;5001826;28;20226;-80
2023/12/03 03:41:08;;;;;;;12.55;2.90;;;;;;;15.94;41.75;94099.66;5008074;28;20187;-79
2023/12/03 03:43:34;;;;;;;12.25;3.13;;;;;;;15.99;42.05;94110.47;5004025;28;20302;-79
2023/12/03 03:46:00;;;;;;;17.30;3.97;;;;;;;16.01;41.97;94117.19;4998273;28;20738;-79
2023/12/03 03:48:25;;;;;;;13.93;3.00;;;;;;;15.94;42.33;94113.75;5006414;28;20222;-79
2023/12/03 03:50:51;;;;;;;17.63;4.00;;;;;;;15.93;42.79;94119.22;5001297;28;20242;-79
2023/12/03 03:53:16;;;;;;;14.85;4.68;;;;;;;15.77;43.73;94126.63;4999655;28;20190;-79
2023/12/03 03:55:42;;;;;;;17.95;4.53;;;;;;;15.56;44.85;94134.75;5004094;28;20225;-79
2023/12/03 03:58:07;;;;;;;13.57;4.07;;;;;;;15.52;44.80;94146.75;5002824;28;20228;-79
2023/12/03 04:00:32;;;;;;;19.95;4.20;;;;;;;15.53;44.96;94145.72;4999970;28;20254;-79
2023/12/03 04:02:58;;;;;;;16.08;3.85;;;;;;;15.38;45.37;94157.34;5003870;28;20222;-79
2023/12/03 04:05:23;;;;;;;16.52;4.85;;;;;;;15.42;45.50;94157.75;5003228;28;20210;-78
2023/12/03 04:07:49;;;;;;;10.98;3.78;;;;;;;15.32;45.61;94147.56;5008674;28;20179;-79
2023/12/03 04:10:14;;;;;;;16.45;4.03;;;;;;;15.31;45.47;94155.69;5004583;28;20219;-79
2023/12/03 04:12:41;;;;;;;14.13;3.60;;;;;;;15.32;45.61;94152.88;4990681;28;20219;-79
2023/12/03 04:15:07;;;;;;;11.38;3.42;;;;;;;15.14;45.98;94163.22;5006916;28;20242;-79
2023/12/03 04:17:33;;;;;;;17.23;3.53;;;;;;;15.09;45.71;94152.41;5005923;28;20212;-79
2023/12/03 04:19:58;;;;;;;13.52;3.72;;;;;;;15.19;45.66;94164.25;5008032;28;20197;-79
2023/12/03 04:22:24;;;;;;;13.38;3.97;;;;;;;15.37;45.19;94149.59;4999942;28;20207;-79
2023/12/03 04:24:50;;;;;;;13.30;3.08;;;;;;;15.23;45.27;94154.06;4999918;28;20224;-79
2023/12/03 04:27:16;;;;;;;17.92;3.72;;;;;;;15.21;45.51;94167.50;5002092;28;20718;-79
2023/12/03 04:29:41;;;;;;;13.02;3.53;;;;;;;15.29;45.42;94163.03;5007679;28;20317;-79
2023/12/03 04:32:07;;;;;;;13.50;3.03;;;;;;;15.12;45.69;94166.06;5007309;28;20294;-79
2023/12/03 04:34:33;;;;;;;13.95;3.50;;;;;;;15.22;45.33;94171.78;5005678;28;20226;-79
2023/12/03 04:36:59;;;;;;;14.57;2.80;;;;;;;15.13;45.37;94190.69;4999509;28;20219;-80
2023/12/03 04:39:24;;;;;;;14.25;3.30;;;;;;;15.20;45.09;94188.88;5004027;28;20228;-80
2023/12/03 04:41:50;;;;;;;13.77;3.15;;;;;;;15.07;45.46;94199.44;5004919;28;20218;-80
2023/12/03 04:44:15;;;;;;;13.80;3.72;;;;;;;14.92;45.86;94196.97;5006665;28;20179;-79
2023/12/03 04:46:43;;;;;;;17.15;3.58;;;;;;;14.95;45.78;94200.03;5000888;28;20236;-79
2023/12/03 04:49:09;;;;;;;11.52;3.45;;;;;;;14.90;46.13;94210.38;5005222;28;20255;-79
2023/12/03 04:51:34;;;;;;;12.90;3.40;;;;;;;14.82;46.53;94210.56;4998996;28;20219;-79
2023/12/03 04:54:00;;;;;;;12.48;3.42;;;;;;;14.80;47.32;94228.47;5001593;28;20225;-79
2023/12/03 04:56:25;;;;;;;12.40;2.75;;;;;;;14.53;48.46;94238.09;5002551;28;20221;-78
2023/12/03 04:58:52;;;;;;;9.65;2.70;;;;;;;14.49;49.32;94242.94;5000566;28;20230;-79
2023/12/03 05:01:18;;;;;;;15.65;3.45;;;;;;;14.55;49.21;94255.41;4997133;28;20273;-79
2023/12/03 05:03:45;;;;;;;9.05;2.80;;;;;;;14.62;49.64;94254.63;5018966;28;20313;-79
2023/12/03 05:06:10;;;;;;;10.63;2.92;;;;;;;14.52;49.42;94257.59;4999802;28;20660;-79
2023/12/03 05:08:35;;;;;;;14.35;3.17;;;;;;;14.54;49.78;94256.44;4988667;28;20207;-78
2023/12/03 05:11:05;;;;;;;16.02;2.85;;;;;;;14.48;50.40;94275.69;5002387;28;20193;-79
2023/12/03 05:13:31;;;;;;;11.75;2.60;;;;;;;14.40;50.55;94275.00;4998717;28;20218;-79
2023/12/03 05:15:57;;;;;;;14.63;2.90;;;;;;;14.38;50.64;94288.44;5001840;28;20226;-79
2023/12/03 05:18:22;;;;;;;10.52;3.00;;;;;;;14.20;51.51;94301.31;4998187;28;20219;-80
2023/12/03 05:20:48;;;;;;;12.73;3.05;;;;;;;14.23;50.87;94308.88;5001799;28;20266;-80
2023/12/03 05:23:14;;;;;;;10.40;3.10;;;;;;;14.25;51.40;94291.00;5000289;28;20191;-77
2023/12/03 05:25:40;;;;;;;12.40;3.03;;;;;;;14.25;52.26;94306.88;5004404;28;20223;-80
2023/12/03 05:28:05;;;;;;;10.05;3.17;;;;;;;14.28;52.42;94294.06;5003133;28;20281;-80
2023/12/03 05:30:31;;;;;;;9.38;2.70;;;;;;;14.25;53.07;94291.00;5000884;28;20257;-80
2023/12/03 05:32:57;;;;;;;12.75;3.30;;;;;;;14.33;53.52;94296.13;5002185;28;20222;-79
2023/12/03 05:35:23;;;;;;;11.95;2.60;;;;;;;14.25;53.67;94305.03;4999284;28;20706;-79
2023/12/03 05:37:48;;;;;;;11.15;2.95;;;;;;;14.31;53.75;94303.44;4998754;28;20289;-80
2023/12/03 05:40:14;;;;;;;9.00;3.30;;;;;;;14.23;54.09;94308.88;4998265;28;20223;-80
2023/12/03 05:42:39;;;;;;;12.95;3.03;;;;;;;14.25;54.17;94310.31;5003057;28;20215;-79
2023/12/03 05:45:05;;;;;;;8.88;2.88;;;;;;;14.24;53.94;94313.13;4999541;28;20257;-79
2023/12/03 05:47:31;;;;;;;9.77;2.78;;;;;;;14.09;54.15;94308.75;5001902;28;20213;-78
2023/12/03 05:50:01;;;;;;;10.85;3.30;;;;;;;14.16;54.20;94316.75;4998515;28;20192;-79
2023/12/03 05:52:27;;;;;;;12.00;2.78;;;;;;;14.10;54.07;94318.31;5001284;28;20227;-80
2023/12/03 05:54:53;;;;;;;10.77;3.00;;;;;;;13.88;54.36;94320.16;4996499;28;20230;-80
2023/12/03 05:57:18;;;;;;;8.98;2.85;;;;;;;13.75;54.99;94329.78;4998292;28;20219;-79
2023/12/03 05:59:44;;;;;;;10.15;2.40;;;;;;;13.45;55.82;94332.53;4998120;28;20227;-79
2023/12/03 06:02:09;;;;;;;12.55;2.92;;;;;;;13.68;54.98;94325.25;5007532;28;20187;-80
2023/12/03 06:04:34;;;;;;;11.63;2.75;;;;;;;13.65;55.53;94317.69;5000463;28;20281;-81
2023/12/03 06:07:00;;;;;;;12.55;2.70;;;;;;;13.88;54.45;94327.28;5006716;28;20274;-78
2023/12/03 06:09:25;;;;;;;10.55;2.63;;;;;;;13.98;54.42;94343.66;5003096;28;20215;-80
2023/12/03 06:11:51;;;;;;;11.77;2.72;;;;;;;13.75;54.98;94345.66;4996576;28;20358;-80
2023/12/03 06:14:16;;;;;;;11.70;3.00;;;;;;;13.56;55.70;94349.72;5013921;28;20191;-80
2023/12/03 06:16:41;;;;;;;10.90;3.00;;;;;;;13.65;55.78;94349.38;4998659;28;20219;-80
2023/12/03 06:19:07;;;;;;;12.05;2.72;;;;;;;13.59;55.96;94352.78;4999674;28;20228;-81
2023/12/03 06:21:32;;;;;;;12.13;2.75;;;;;;;13.79;56.02;94357.47;5001898;28;20219;-79
2023/12/03 06:23:58;;;;;;;8.57;3.13;;;;;;;13.93;55.55;94355.78;5005365;28;20210;-79
2023/12/03 06:26:23;;;;;;;9.65;3.00;;;;;;;13.97;55.37;94362.31;5007480;28;20195;-79
2023/12/03 06:28:48;;;;;;;10.27;3.17;;;;;;;14.03;55.33;94357.13;5009161;28;20191;-80
2023/12/03 06:31:14;;;;;;;8.45;2.90;;;;;;;13.94;55.83;94368.81;5003343;28;20674;-80
2023/12/03 06:33:40;;;;;;;15.60;3.25;;;;;;;14.02;55.74;94368.69;5003222;28;20553;-80
2023/12/03 06:36:06;;;;;;;13.05;2.85;;;;;;;14.08;55.53;94369.75;5004489;28;20219;-80
2023/12/03 06:38:31;;;;;;;10.25;2.97;;;;;;;13.94;55.93;94374.09;5008180;28;20210;-80
2023/12/03 06:40:56;;;;;;;14.23;2.78;;;;;;;13.84;56.95;94384.94;5002939;28;20183;-80
2023/12/03 06:43:22;;;;;;;9.70;3.08;;;;;;;13.66;57.18;94380.09;5005059;28;20562;-79
2023/12/03 06:45:47;;;;;;;9.55;2.65;;;;;;;13.77;57.47;94380.63;5006813;28;20243;-79
2023/12/03 06:48:13;;;;;;;9.80;2.45;;;;;;;13.89;57.07;94389.69;5009114;28;20297;-79
2023/12/03 06:50:38;;;;;;;8.07;3.00;;;;;;;13.75;57.51;94398.50;5001339;28;20194;-80
2023/12/03 06:53:03;;;;;;;14.23;3.53;;;;;;;13.44;59.20;94405.66;5002406;28;20194;-79
2023/12/03 06:55:29;;;;;;;9.65;3.50;;;;;;;13.30;60.15;94413.56;5001632;28;20343;-79
2023/12/03 06:57:55;;;;;;;12.00;3.15;;;;;;;13.23;60.95;94409.00;5005224;28;20237;-79
2023/12/03 07:00:21;;;;;;;11.88;3.20;;;;;;;13.19;62.78;94420.91;5002829;28;20336;-81
2023/12/03 07:02:47;;;;;;;13.13;3.60;;;;;;;12.91;65.00;94411.97;5000768;28;20227;-78
2023/12/03 07:05:12;;;;;;;10.65;3.63;;;;;;;12.85;65.78;94431.19;5007636;28;20210;-79
2023/12/03 07:07:38;;;;;;;16.60;4.35;;;;;;;12.75;67.51;94426.16;5018587;28;20726;-79
2023/12/03 07:10:03;;;;;;;9.77;3.50;;;;;;;12.67;67.72;94431.50;5003551;28;20239;-80
2023/12/03 07:12:30;;;;;;;16.98;4.43;;;;;;;12.65;68.61;94431.69;5002141;28;20232;-79
2023/12/03 07:14:55;;;;;;;8.25;3.00;;;;;;;12.53;68.68;94435.75;5003051;28;20223;-80
2023/12/03 07:17:21;;;;;;;18.75;4.10;;;;;;;12.53;69.47;94435.75;5007600;28;20197;-78
2023/12/03 07:19:47;;;;;;;12.82;4.20;;;;;;;12.52;69.96;94437.56;5008206;28;20203;-80
2023/12/03 07:22:13;;;;;;;12.07;3.72;;;;;;;12.38;71.17;94437.53;5000721;28;20215;-81
2023/12/03 07:24:39;;;;;;;15.15;4.60;;;;;;;12.50;71.78;94449.28;5005088;28;20305;-81
2023/12/03 07:27:05;;;;;;;13.68;3.78;;;;;;;12.37;71.63;94444.59;5005121;28;20289;-79
2023/12/03 07:29:31;;;;;;;10.88;4.28;;;;;;;12.55;72.19;94445.13;5002959;28;20187;-81
2023/12/03 07:31:56;;;;;;;11.77;4.40;;;;;;;12.58;72.18;94455.31;5000598;28;20179;-80
2023/12/03 07:34:22;;;;;;;12.27;4.38;;;;;;;12.71;71.82;94457.34;4998999;28;20305;-80
2023/12/03 07:36:47;;;;;;;13.88;4.10;;;;;;;12.85;71.45;94461.00;5004282;28;20254;-81
2023/12/03 07:39:13;;;;;;;13.50;4.47;;;;;;;12.89;71.86;94464.13;5009625;28;20230;-80
2023/12/03 07:41:38;;;;;;;12.88;4.35;;;;;;;12.98;71.94;94465.69;5002435;28;20220;-79
2023/12/03 07:44:04;;;;;;;11.40;4.40;;;;;;;12.75;72.55;94469.19;5007287;28;20229;-80
2023/12/03 07:46:32;;;;;;;13.15;4.45;;;;;;;12.90;72.67;94474.50;5002584;28;20231;-80
2023/12/03 07:48:58;;;;;;;17.40;5.43;;;;;;;13.02;72.34;94483.63;5016946;28;20219;-79
2023/12/03 07:51:24;;;;;;;13.95;5.13;;;;;;;12.85;73.49;94494.50;5008666;28;20230;-80
2023/12/03 07:53:49;;;;;;;12.68;4.57;;;;;;;12.44;74.67;94494.84;5009070;28;20265;-79
2023/12/03 07:56:15;;;;;;;11.32;4.03;;;;;;;12.29;75.18;94500.03;5009456;28;20190;-80
2023/12/03 07:58:40;;;;;;;15.50;4.95;;;;;;;12.35;75.42;94508.06;5006130;28;20227;-80
2023/12/03 08:01:06;;;;;;;8.35;4.38;;;;;;;12.35;76.02;94510.72;5001088;28;20274;-80
2023/12/03 08:03:32;;;;;;;11.82;5.20;;;;;;;12.51;75.05;94519.50;5002100;28;20227;-79
2023/12/03 08:05:58;;;;;;;12.77;5.47;;;;;;;12.30;75.30;94514.88;5003957;28;20268;-80
2023/12/03 08:08:24;;;;;;;9.52;5.90;;;;;;;12.16;73.70;94507.69;5007006;28;20186;-80
2023/12/03 08:10:49;;;;;;;11.10;5.10;;;;;;;12.02;73.23;94532.97;5006484;28;20187;-80
2023/12/03 08:13:14;;;;;;;9.60;6.47;;;;;;;11.64;75.29;94552.03;5006477;28;20219;-80
2023/12/03 08:15:40;;;;;;;13.43;7.18;;;;;;;11.60;75.58;94552.53;5008491;28;20269;-80
2023/12/03 08:18:05;;;;;;;11.07;6.47;;;;;;;11.73;75.44;94559.91;5000998;28;20259;-80
2023/12/03 08:20:31;;;;;;;15.52;7.32;;;;;;;11.37;75.98;94555.88;5003961;28;20207;-80
2023/12/03 08:22:56;;;;;;;11.73;7.78;;;;;;;11.39;76.45;94553.91;5000049;28;20179;-81
2023/12/03 08:25:22;;;;;;;9.55;7.28;;;;;;;11.26;74.72;94570.22;5001636;28;20314;-80
2023/12/03 08:27:47;;;;;;;9.50;7.73;;;;;;;11.12;74.59;94572.69;5006244;28;20219;-82
2023/12/03 08:30:13;;;;;;;9.40;8.20;;;;;;;11.29;74.72;94576.13;5007349;28;20222;-79
2023/12/03 08:32:38;;;;;;;8.07;7.22;;;;;;;10.78;74.95;94574.50;5001076;28;20187;-80
2023/12/03 08:35:04;;;;;;;9.40;8.05;;;;;;;11.11;75.09;94581.56;5008396;28;20182;-81
2023/12/03 08:37:30;;;;;;;9.90;8.45;;;;;;;10.89;74.50;94573.38;4988513;28;20223;-80
2023/12/03 08:39:55;;;;;;;10.73;8.43;;;;;;;10.96;72.69;94582.25;5009492;28;20226;-81
2023/12/03 08:42:20;;;;;;;11.33;8.67;;;;;;;10.78;71.92;94576.31;5003954;28;20219;-80
2023/12/03 08:44:46;;;;;;;9.13;8.23;;;;;;;10.55;71.96;94582.19;4996145;28;20225;-79
2023/12/03 08:47:13;;;;;;;10.27;8.98;;;;;;;10.57;71.09;94593.38;5007504;28;20227;-80
2023/12/03 08:49:38;;;;;;;9.10;8.17;;;;;;;10.16;71.60;94592.44;4998969;28;20301;-79
2023/12/03 08:52:04;;;;;;;9.87;8.70;;;;;;;10.22;71.40;94591.81;5000322;28;20302;-81
2023/12/03 08:54:32;;;;;;;9.83;8.83;;;;;;;10.18;71.84;94587.03;5008529;28;20361;-83
2023/12/03 08:56:57;;;;;;;9.50;8.20;;;;;;;10.08;70.01;94595.88;5001485;28;20214;-80
2023/12/03 08:59:24;;;;;;;9.82;8.82;;;;;;;9.81;69.66;94594.28;5004733;28;20218;-79
2023/12/03 09:01:50;;;;;;;9.43;8.53;;;;;;;9.78;69.88;94620.00;5000120;28;20270;-81
2023/12/03 09:04:16;;;;;;;10.07;8.67;;;;;;;10.00;70.22;94614.22;5006385;28;20231;-80
2023/12/03 09:06:42;;;;;;;10.27;9.20;;;;;;;9.44;70.20;94629.53;4995772;28;20226;-80
2023/12/03 09:09:07;;;;;;;11.23;10.13;;;;;;;9.20;71.79;94619.69;5002120;28;20222;-80
2023/12/03 09:11:35;;;;;;;12.03;10.83;;;;;;;9.09;72.03;94601.56;5002367;28;20270;-81
2023/12/03 09:14:01;;;;;;;11.87;9.30;;;;;;;9.44;69.86;94599.84;5000138;28;20210;-80
2023/12/03 09:16:27;;;;;;;12.17;10.83;;;;;;;9.02;72.21;94611.84;5001686;28;20219;-79
2023/12/03 09:18:52;;;;;;;13.87;11.30;;;;;;;9.20;71.97;94621.47;5001410;28;20254;-78
2023/12/03 09:21:18;;;;;;;12.03;10.83;;;;;;;8.89;72.63;94628.94;5000187;28;20325;-79
2023/12/03 09:23:43;;;;;;;12.17;10.97;;;;;;;8.85;73.08;94641.53;5004211;28;20215;-81
2023/12/03 09:26:09;;;;;;;12.37;11.07;;;;;;;8.56;74.35;94631.25;5005992;28;20203;-83
2023/12/03 09:28:34;;;;;;;13.53;12.13;;;;;;;8.37;74.99;94640.88;5002648;28;20219;-79
2023/12/03 09:31:00;;;;;;;13.30;11.60;;;;;;;8.48;74.45;94642.47;5006741;28;20230;-80
2023/12/03 09:33:27;;;;;;;15.53;13.40;;;;;;;8.55;75.03;94634.84;4994460;28;20215;-81
2023/12/03 09:35:53;;;;;;;12.37;11.07;;;;;;;8.54;74.19;94635.81;4990826;28;20223;-80
2023/12/03 09:38:20;;;;;;;12.77;11.47;;;;;;;8.63;74.06;94647.19;5002229;28;20286;-81
2023/12/03 09:40:47;;;;;;;12.77;11.20;;;;;;;7.79;75.95;94651.63;5003034;28;20245;-81
2023/12/03 09:43:16;;;;;;;13.90;12.40;;;;;;;8.20;75.48;94638.19;5003960;28;20219;-81
2023/12/03 09:45:43;;;;;;;13.50;12.10;;;;;;;8.42;74.17;94639.59;5000307;28;20329;-79
2023/12/03 09:48:09;;;;;;;13.73;11.77;;;;;;;8.54;74.52;94633.19;4996456;28;20223;-81
2023/12/03 09:50:36;;;;;;;13.40;12.00;;;;;;;8.64;74.19;94646.25;5003499;28;20210;-81
2023/12/03 09:53:04;;;;;;;15.17;12.80;;;;;;;8.32;74.48;94653.56;5004158;28;20283;-80
2023/12/03 09:55:32;;;;;;;13.17;11.87;;;;;;;8.32;73.66;94650.13;4997547;28;20227;-78
2023/12/03 09:57:59;;;;;;;14.07;12.70;;;;;;;8.22;74.20;94658.03;5002024;28;20237;-81
2023/12/03 10:00:29;;;;;;;13.40;12.00;;;;;;;7.74;74.81;94665.13;5008252;28;20227;-73
2023/12/03 10:02:55;;;;;;;14.37;12.60;;;;;;;7.84;75.46;94664.28;5002227;28;20254;-72
2023/12/03 10:05:21;;;;;;;13.93;12.43;;;;;;;7.74;74.90;94667.75;5007938;28;20226;-77
2023/12/03 10:07:48;;;;;;;14.27;12.13;;;;;;;7.43;75.47;94675.00;5005847;28;20214;-76
2023/12/03 10:10:18;;;;;;;16.17;14.43;;;;;;;7.28;76.09;94679.84;5008664;28;20252;-74
2023/12/03 10:12:43;;;;;;;16.30;14.13;;;;;;;7.24;76.80;94691.56;5004202;28;20210;-76
2023/12/03 10:15:12;;;;;;;13.83;11.73;;;;;;;7.04;75.15;94701.19;5006558;28;20253;-72
2023/12/03 10:17:39;;;;;;;13.00;11.57;;;;;;;7.05;75.13;94700.22;5004396;28;20231;-75
2023/12/03 10:20:27;;;;;;;12.83;11.30;;;;;;;6.52;75.79;94705.00;5012619;28;20544;-81
2023/12/03 10:22:57;;;;;;;11.93;9.77;;;;;;;6.73;74.64;94704.88;4979777;28;20227;-80
2023/12/03 10:25:29;;;;;;;11.27;9.70;;;;;;;6.75;74.94;94713.41;5004511;28;20252;-72
2023/12/03 10:27:56;;;;;;;13.53;9.77;;;;;;;6.51;75.37;94698.94;5012258;28;20231;-75
2023/12/03 10:30:21;;;;;;;11.00;9.37;;;;;;;6.63;75.29;94715.34;5001331;28;20229;-74
2023/12/03 10:32:47;;;;;;;13.73;10.97;;;;;;;6.59;75.82;94708.72;5004111;28;20314;-77
2023/12/03 10:35:15;;;;;;;14.23;10.73;;;;;;;6.94;75.10;94702.97;5003676;28;20191;-76
2023/12/03 10:37:41;;;;;;;12.30;10.40;;;;;;;7.14;74.27;94703.00;5005175;28;20281;-73
2023/12/03 10:40:07;;;;;;;11.90;10.70;;;;;;;7.03;74.19;94696.94;5009263;28;20222;-72
2023/12/03 10:42:37;;;;;;;12.70;11.37;;;;;;;7.01;73.40;94711.94;5005520;28;20222;-75
2023/12/03 10:45:07;;;;;;;11.63;10.20;;;;;;;6.88;74.26;94716.59;4991050;28;20227;-73
2023/12/03 10:47:34;;;;;;;12.23;10.90;;;;;;;6.91;74.31;94703.25;5005096;28;20191;-75
2023/12/03 10:50:01;;;;;;;11.70;10.50;;;;;;;6.75;73.62;94724.69;5005027;28;20183;-74
2023/12/03 10:52:30;;;;;;;13.93;10.03;;;;;;;6.56;74.12;94720.25;5014331;28;20231;-74
2023/12/03 10:54:56;;;;;;;14.23;9.63;;;;;;;6.57;73.13;94727.13;5006379;28;20227;-71
2023/12/03 10:57:29;;;;;;;12.30;9.97;;;;;;;6.48;74.35;94722.72;5009526;28;20223;-77
2023/12/03 11:00:09;;;;;;;11.93;9.93;;;;;;;6.58;73.91;94739.25;5007455;28;20269;-78
2023/12/03 11:03:10;;;;;;;12.47;9.87;;;;;;;6.52;73.33;94725.88;4988872;28;20230;-70
2023/12/03 11:05:51;;;;;;;14.73;9.83;;;;;;;6.40;74.08;94727.78;4971055;28;20294;-72
2023/12/03 11:08:20;;;;;;;11.93;9.97;;;;;;;6.18;74.53;94727.03;4985311;28;20408;-76
2023/12/03 11:10:46;;;;;;;13.13;10.83;;;;;;;6.09;74.77;94721.78;4987150;28;20218;-76
2023/12/03 11:13:12;;;;;;;12.97;10.27;;;;;;;6.23;75.16;94723.19;4987438;28;20233;-73
2023/12/03 11:15:39;;;;;;;12.37;10.07;;;;;;;6.27;76.01;94724.59;4993304;28;20223;-74
2023/12/03 11:18:07;;;;;;;12.87;10.60;;;;;;;6.48;75.10;94717.50;4987445;28;20266;-76
2023/12/03 11:20:36;;;;;;;10.17;8.83;;;;;;;6.43;73.62;94735.34;5004031;28;20341;-74
2023/12/03 11:23:01;;;;;;;12.23;8.93;;;;;;;6.31;73.22;94734.66;4999105;28;20203;-77